createdAt,value
2022-11-01T00:00:56.170Z,11.40
2022-11-01T00:01:58.053Z,12.11
2022-11-01T00:02:59.927Z,10.58
2022-11-01T00:04:01.758Z,10.75
2022-11-01T00:05:03.640Z,11.05
2022-11-01T00:06:05.595Z,9.56
2022-11-01T00:07:07.420Z,10.00
2022-11-01T00:08:09.269Z,9.97
2022-11-01T00:09:11.101Z,10.02
2022-11-01T00:10:13.405Z,9.12
2022-11-01T00:11:15.220Z,10.07
2022-11-01T00:12:17.044Z,9.99
2022-11-01T00:13:18.914Z,9.96
2022-11-01T00:14:20.733Z,11.34
2022-11-01T00:15:22.598Z,9.76
2022-11-01T00:16:24.531Z,9.35
2022-11-01T00:17:26.348Z,10.94
2022-11-01T00:18:28.165Z,10.43
2022-11-01T00:19:30.013Z,10.10
2022-11-01T00:20:32.250Z,10.67
2022-11-01T00:21:34.093Z,10.54
2022-11-01T00:22:35.933Z,10.54
2022-11-01T00:23:37.761Z,10.67
2022-11-01T00:24:39.605Z,10.51
2022-11-01T00:25:41.491Z,10.81
2022-11-01T00:26:43.389Z,10.38
2022-11-01T00:27:45.272Z,8.99
2022-11-01T00:28:47.125Z,8.53
2022-11-01T00:29:49.173Z,8.89
2022-11-01T00:30:51.055Z,8.58
2022-11-01T00:31:52.880Z,9.90
2022-11-01T00:32:54.718Z,9.99
2022-11-01T00:33:56.538Z,10.11
2022-11-01T00:34:58.361Z,9.40
2022-11-01T00:36:00.247Z,10.68
2022-11-01T00:37:02.100Z,10.19
2022-11-01T00:38:04.313Z,9.29
2022-11-01T00:39:06.379Z,10.36
2022-11-01T00:40:08.638Z,10.20
2022-11-01T00:41:10.509Z,9.09
2022-11-01T00:42:12.353Z,8.74
2022-11-01T00:43:14.259Z,9.35
2022-11-01T00:44:16.249Z,9.95
2022-11-01T00:45:18.090Z,9.31
2022-11-01T00:46:20.054Z,9.31
2022-11-01T00:47:21.880Z,9.47
2022-11-01T00:48:23.732Z,9.39
2022-11-01T00:49:25.568Z,8.76
2022-11-01T00:50:27.504Z,8.46
2022-11-01T00:51:29.460Z,8.31
2022-11-01T00:52:31.305Z,8.49
2022-11-01T00:53:33.128Z,8.29
2022-11-01T00:54:35.086Z,8.33
2022-11-01T00:55:36.926Z,8.39
2022-11-01T00:56:38.901Z,8.21
2022-11-01T00:57:40.748Z,8.68
2022-11-01T00:58:42.584Z,7.54
2022-11-01T00:59:44.459Z,7.74
2022-11-01T01:00:46.294Z,8.24
2022-11-01T01:01:48.265Z,7.93
2022-11-01T01:02:50.256Z,7.34
2022-11-01T01:03:52.102Z,7.89
2022-11-01T01:04:53.915Z,8.12
2022-11-01T01:05:55.737Z,7.70
2022-11-01T01:06:57.629Z,7.59
2022-11-01T01:07:59.463Z,7.50
2022-11-01T01:09:01.287Z,7.26
2022-11-01T01:10:03.109Z,6.96
2022-11-01T01:11:04.938Z,6.37
2022-11-01T01:12:06.840Z,6.47
2022-11-01T01:13:08.665Z,6.25
2022-11-01T01:14:10.480Z,6.44
2022-11-01T01:15:12.306Z,6.37
2022-11-01T01:16:14.565Z,6.73
2022-11-01T01:17:16.646Z,6.63
2022-11-01T01:18:18.494Z,6.08
2022-11-01T01:19:20.320Z,6.00
2022-11-01T01:20:22.246Z,5.77
2022-11-01T01:21:24.067Z,5.85
2022-11-01T01:22:25.979Z,6.09
2022-11-01T01:23:27.816Z,5.94
2022-11-01T01:24:29.636Z,5.70
2022-11-01T01:25:31.434Z,5.44
2022-11-01T01:26:33.545Z,5.33
2022-11-01T01:27:35.382Z,5.64
2022-11-01T01:28:41.790Z,5.59
2022-11-01T01:29:40.842Z,4.96
2022-11-01T01:30:42.670Z,5.03
2022-11-01T01:31:44.521Z,5.53
2022-11-01T01:32:46.398Z,5.04
2022-11-01T01:33:48.420Z,5.04
2022-11-01T01:34:50.274Z,5.90
2022-11-01T01:35:52.100Z,5.73
2022-11-01T01:36:53.884Z,5.57
2022-11-01T01:37:56.171Z,5.73
2022-11-01T01:38:58.001Z,6.50
2022-11-01T01:39:59.803Z,5.60
2022-11-01T01:41:01.624Z,5.87
2022-11-01T01:42:03.457Z,6.06
2022-11-01T01:43:05.334Z,6.23
2022-11-01T01:44:07.149Z,6.24
2022-11-01T01:45:08.957Z,6.42
2022-11-01T01:46:11.172Z,5.31
2022-11-01T01:47:12.979Z,5.69
2022-11-01T01:48:14.834Z,5.64
2022-11-01T01:49:16.627Z,5.22
2022-11-01T01:50:18.456Z,5.82
2022-11-01T01:51:20.263Z,5.28
2022-11-01T01:52:22.060Z,4.83
2022-11-01T01:53:23.839Z,4.98
2022-11-01T01:54:25.659Z,4.98
2022-11-01T01:55:27.484Z,5.24
2022-11-01T01:56:29.302Z,4.77
2022-11-01T01:57:31.108Z,5.01
2022-11-01T01:58:32.984Z,5.26
2022-11-01T01:59:34.818Z,4.17
2022-11-01T02:00:36.633Z,4.30
2022-11-01T02:01:40.065Z,4.17
2022-11-01T02:02:42.024Z,3.67
2022-11-01T02:03:43.886Z,4.21
2022-11-01T02:04:45.918Z,3.91
2022-11-01T02:05:47.754Z,3.64
2022-11-01T02:06:49.587Z,4.10
2022-11-01T02:07:51.401Z,4.05
2022-11-01T02:08:53.352Z,4.28
2022-11-01T02:09:55.182Z,3.68
2022-11-01T02:10:56.973Z,3.93
2022-11-01T02:11:58.783Z,3.57
2022-11-01T02:13:00.593Z,3.54
2022-11-01T02:14:02.464Z,3.68
2022-11-01T02:15:04.294Z,3.16
2022-11-01T02:16:06.318Z,3.42
2022-11-01T02:17:09.621Z,3.99
2022-11-01T02:18:11.486Z,3.25
2022-11-01T02:19:13.348Z,3.23
2022-11-01T02:20:15.572Z,3.34
2022-11-01T02:21:17.372Z,3.23
2022-11-01T02:22:19.207Z,3.23
2022-11-01T02:23:21.021Z,2.93
2022-11-01T02:24:22.937Z,3.43
2022-11-01T02:25:24.760Z,3.04
2022-11-01T02:26:26.585Z,3.04
2022-11-01T02:27:28.416Z,3.22
2022-11-01T02:28:30.246Z,3.14
2022-11-01T02:29:32.113Z,3.41
2022-11-01T02:30:33.931Z,3.57
2022-11-01T02:31:35.760Z,2.87
2022-11-01T02:32:37.606Z,2.78
2022-11-01T02:33:39.433Z,3.09
2022-11-01T02:34:41.280Z,3.55
2022-11-01T02:35:43.083Z,3.34
2022-11-01T02:36:44.992Z,3.31
2022-11-01T02:37:46.830Z,3.39
2022-11-01T02:38:48.615Z,3.30
2022-11-01T02:39:50.546Z,3.49
2022-11-01T02:40:52.467Z,3.43
2022-11-01T02:41:54.517Z,4.17
2022-11-01T02:42:56.308Z,4.28
2022-11-01T02:43:58.141Z,4.07
2022-11-01T02:45:00.024Z,4.25
2022-11-01T02:46:01.855Z,3.94
2022-11-01T02:47:03.678Z,4.50
2022-11-01T02:48:05.475Z,4.61
2022-11-01T02:49:07.287Z,4.65
2022-11-01T02:50:09.368Z,4.86
2022-11-01T02:51:11.182Z,5.25
2022-11-01T02:52:13.014Z,5.34
2022-11-01T02:53:15.019Z,5.45
2022-11-01T02:54:16.846Z,5.25
2022-11-01T02:55:18.777Z,5.47
2022-11-01T02:56:20.604Z,5.85
2022-11-01T02:57:22.430Z,5.51
2022-11-01T02:58:24.267Z,5.53
2022-11-01T02:59:26.063Z,5.17
2022-11-01T03:00:28.036Z,4.99
2022-11-01T03:01:29.953Z,4.86
2022-11-01T03:02:31.864Z,4.99
2022-11-01T03:03:33.712Z,4.59
2022-11-01T03:04:35.544Z,4.99
2022-11-01T03:05:37.399Z,4.79
2022-11-01T03:06:39.224Z,4.76
2022-11-01T03:07:41.013Z,4.51
2022-11-01T03:08:42.842Z,4.66
2022-11-01T03:09:44.671Z,5.01
2022-11-01T03:10:46.538Z,4.21
2022-11-01T03:11:48.348Z,4.19
2022-11-01T03:12:50.159Z,4.62
2022-11-01T03:13:51.975Z,4.67
2022-11-01T03:14:53.786Z,4.86
2022-11-01T03:15:55.645Z,5.55
2022-11-01T03:16:57.463Z,5.23
2022-11-01T03:17:59.298Z,5.39
2022-11-01T03:20:22.322Z,6.66
2022-11-01T03:21:24.189Z,6.67
2022-11-01T03:22:26.002Z,7.85
2022-11-01T03:23:27.805Z,7.49
2022-11-01T03:24:29.627Z,7.68
2022-11-01T03:25:31.445Z,7.88
2022-11-01T03:26:33.550Z,7.97
2022-11-01T03:27:35.365Z,7.86
2022-11-01T03:28:37.182Z,7.86
2022-11-01T03:29:39.016Z,8.23
2022-11-01T03:30:40.858Z,7.75
2022-11-01T03:31:42.723Z,7.65
2022-11-01T03:32:45.173Z,7.46
2022-11-01T03:33:46.983Z,8.35
2022-11-01T03:34:48.794Z,7.30
2022-11-01T03:35:50.614Z,7.69
2022-11-01T03:36:52.513Z,7.08
2022-11-01T03:37:54.630Z,7.49
2022-11-01T03:38:56.480Z,8.24
2022-11-01T03:39:58.315Z,9.79
2022-11-01T03:41:00.140Z,7.31
2022-11-01T03:42:02.067Z,8.13
2022-11-01T03:43:04.250Z,7.93
2022-11-01T03:44:06.335Z,7.65
2022-11-01T03:45:08.181Z,8.09
2022-11-01T03:46:10.722Z,8.39
2022-11-01T03:47:12.593Z,7.97
2022-11-01T03:48:14.409Z,8.11
2022-11-01T03:49:16.231Z,8.52
2022-11-01T03:50:18.185Z,8.51
2022-11-01T03:51:20.021Z,7.73
2022-11-01T03:52:21.897Z,7.83
2022-11-01T03:53:23.722Z,7.63
2022-11-01T03:54:25.557Z,8.27
2022-11-01T03:55:27.405Z,7.67
2022-11-01T03:56:29.540Z,7.51
2022-11-01T03:57:31.420Z,7.87
2022-11-01T03:58:33.255Z,7.88
2022-11-01T03:59:35.076Z,7.38
2022-11-01T04:00:36.910Z,7.26
2022-11-01T04:01:38.900Z,5.93
2022-11-01T04:02:40.927Z,6.79
2022-11-01T04:03:42.833Z,7.11
2022-11-01T04:04:44.661Z,7.37
2022-11-01T04:05:46.524Z,7.49
2022-11-01T04:06:48.360Z,6.60
2022-11-01T04:07:50.227Z,6.33
2022-11-01T04:08:52.058Z,6.59
2022-11-01T04:09:53.882Z,6.53
2022-11-01T04:10:55.828Z,6.54
2022-11-01T04:11:57.663Z,6.72
2022-11-01T04:12:59.696Z,6.38
2022-11-01T04:14:01.827Z,6.12
2022-11-01T04:15:03.663Z,5.95
2022-11-01T04:16:05.691Z,6.44
2022-11-01T04:17:07.522Z,6.87
2022-11-01T04:18:09.377Z,6.65
2022-11-01T04:19:11.202Z,6.48
2022-11-01T04:20:13.265Z,7.31
2022-11-01T04:21:15.137Z,7.14
2022-11-01T04:22:19.379Z,8.29
2022-11-01T04:23:20.624Z,8.54
2022-11-01T04:24:22.460Z,11.41
2022-11-01T04:25:24.306Z,11.15
2022-11-01T04:26:26.128Z,10.68
2022-11-01T04:27:27.967Z,10.61
2022-11-01T04:28:29.981Z,10.37
2022-11-01T04:29:31.834Z,11.85
2022-11-01T04:30:33.661Z,27.81
2022-11-01T04:31:35.488Z,42.55
2022-11-01T04:32:37.314Z,30.65
2022-11-01T04:33:39.216Z,19.71
2022-11-01T04:34:41.059Z,16.66
2022-11-01T04:35:42.887Z,15.47
2022-11-01T04:36:44.705Z,12.77
2022-11-01T04:37:46.557Z,12.23
2022-11-01T04:38:48.429Z,11.19
2022-11-01T04:39:50.247Z,14.01
2022-11-01T04:40:52.181Z,12.67
2022-11-01T04:41:54.025Z,11.13
2022-11-01T04:42:55.861Z,10.75
2022-11-01T04:43:57.744Z,9.99
2022-11-01T04:44:59.575Z,10.27
2022-11-01T04:46:01.415Z,10.28
2022-11-01T04:47:03.249Z,10.01
2022-11-01T04:48:05.361Z,9.96
2022-11-01T04:49:07.337Z,9.15
2022-11-01T04:50:10.697Z,9.24
2022-11-01T04:51:12.536Z,7.79
2022-11-01T04:52:14.375Z,7.85
2022-11-01T04:53:16.202Z,7.20
2022-11-01T04:54:18.075Z,6.89
2022-11-01T04:55:19.906Z,6.81
2022-11-01T04:56:21.749Z,6.26
2022-11-01T04:57:23.555Z,6.92
2022-11-01T04:58:25.375Z,6.18
2022-11-01T04:59:27.431Z,6.70
2022-11-01T05:00:29.287Z,6.84
2022-11-01T05:01:31.205Z,6.05
2022-11-01T05:02:33.121Z,6.90
2022-11-01T05:03:34.957Z,6.63
2022-11-01T05:04:36.851Z,5.81
2022-11-01T05:05:38.687Z,5.57
2022-11-01T05:06:40.510Z,6.41
2022-11-01T05:07:42.350Z,6.81
2022-11-01T05:08:44.194Z,7.42
2022-11-01T05:09:46.046Z,6.96
2022-11-01T05:10:47.979Z,8.25
2022-11-01T05:11:49.823Z,8.56
2022-11-01T05:12:51.655Z,7.53
2022-11-01T05:13:53.507Z,6.50
2022-11-01T05:14:56.878Z,7.35
2022-11-01T05:16:18.360Z,6.75
2022-11-01T05:17:02.716Z,6.39
2022-11-01T05:18:04.548Z,6.91
2022-11-01T05:19:06.451Z,6.78
2022-11-01T05:20:08.630Z,6.94
2022-11-01T05:21:10.471Z,6.75
2022-11-01T05:22:12.287Z,7.51
2022-11-01T05:23:14.109Z,7.30
2022-11-01T05:24:15.937Z,7.11
2022-11-01T05:25:17.824Z,7.53
2022-11-01T05:26:19.859Z,8.13
2022-11-01T05:27:21.691Z,8.10
2022-11-01T05:28:23.565Z,8.39
2022-11-01T05:29:32.925Z,7.54
2022-11-01T05:30:29.101Z,8.22
2022-11-01T05:31:30.939Z,7.99
2022-11-01T05:32:32.754Z,7.76
2022-11-01T05:33:34.620Z,8.98
2022-11-01T05:34:36.463Z,9.28
2022-11-01T05:35:38.339Z,9.20
2022-11-01T05:36:40.352Z,12.25
2022-11-01T05:37:42.186Z,9.12
2022-11-01T05:38:44.001Z,9.87
2022-11-01T05:39:45.859Z,8.53
2022-11-01T05:40:47.825Z,9.53
2022-11-01T05:41:49.664Z,10.21
2022-11-01T05:42:51.501Z,10.80
2022-11-01T05:43:53.332Z,11.20
2022-11-01T05:44:55.161Z,10.61
2022-11-01T05:45:57.112Z,10.58
2022-11-01T05:46:58.955Z,10.91
2022-11-01T05:48:00.781Z,11.83
2022-11-01T05:49:02.701Z,13.05
2022-11-01T05:50:04.623Z,12.13
2022-11-01T05:51:06.477Z,13.28
2022-11-01T05:52:08.281Z,14.53
2022-11-01T05:53:10.197Z,14.49
2022-11-01T05:54:12.234Z,14.77
2022-11-01T05:55:14.058Z,14.01
2022-11-01T05:56:15.934Z,14.53
2022-11-01T05:57:17.794Z,14.81
2022-11-01T05:58:19.632Z,12.07
2022-11-01T05:59:21.468Z,11.18
2022-11-01T06:00:23.286Z,7.48
2022-11-01T06:01:25.429Z,6.38
2022-11-01T06:02:27.433Z,5.49
2022-11-01T06:03:29.283Z,4.84
2022-11-01T06:04:31.111Z,4.74
2022-11-01T06:05:32.933Z,4.11
2022-11-01T06:06:34.825Z,3.97
2022-11-01T06:07:36.683Z,3.71
2022-11-01T06:08:38.498Z,3.83
2022-11-01T06:09:40.286Z,4.32
2022-11-01T06:10:42.108Z,3.88
2022-11-01T06:11:43.962Z,4.34
2022-11-01T06:12:45.780Z,3.64
2022-11-01T06:13:47.601Z,15.73
2022-11-01T06:14:49.402Z,17.29
2022-11-01T06:15:51.213Z,18.53
2022-11-01T06:16:53.234Z,18.17
2022-11-01T06:17:55.061Z,17.19
2022-11-01T06:18:56.889Z,17.03
2022-11-01T06:19:58.706Z,17.05
2022-11-01T06:21:00.658Z,17.97
2022-11-01T06:22:02.528Z,15.28
2022-11-01T06:23:04.320Z,15.85
2022-11-01T06:24:06.267Z,15.29
2022-11-01T06:25:08.021Z,15.41
2022-11-01T06:26:10.241Z,14.91
2022-11-01T06:27:12.876Z,15.21
2022-11-01T06:28:14.870Z,16.64
2022-11-01T06:29:17.104Z,16.71
2022-11-01T06:30:19.039Z,16.18
2022-11-01T06:31:20.869Z,15.83
2022-11-01T06:32:22.848Z,15.45
2022-11-01T06:33:24.670Z,15.41
2022-11-01T06:34:26.481Z,16.99
2022-11-01T06:35:28.308Z,15.92
2022-11-01T06:36:30.116Z,14.91
2022-11-01T06:37:31.982Z,14.85
2022-11-01T06:38:33.818Z,15.72
2022-11-01T06:39:35.645Z,13.70
2022-11-01T06:40:37.578Z,15.23
2022-11-01T06:41:39.403Z,12.53
2022-11-01T06:42:46.594Z,13.59
2022-11-01T06:43:46.069Z,14.37
2022-11-01T06:44:47.910Z,13.37
2022-11-01T06:45:49.730Z,13.69
2022-11-01T06:46:51.522Z,12.99
2022-11-01T06:47:53.446Z,13.04
2022-11-01T06:48:55.272Z,13.13
2022-11-01T06:49:57.077Z,12.54
2022-11-01T06:50:58.898Z,11.40
2022-11-01T06:52:00.728Z,11.45
2022-11-01T06:53:02.598Z,10.79
2022-11-01T06:54:04.437Z,11.65
2022-11-01T06:55:06.265Z,10.42
2022-11-01T06:56:08.804Z,11.19
2022-11-01T06:57:10.630Z,11.27
2022-11-01T06:58:12.510Z,9.98
2022-11-01T06:59:14.320Z,10.41
2022-11-01T07:00:16.238Z,10.26
2022-11-01T07:01:18.173Z,9.86
2022-11-01T07:02:21.110Z,9.67
2022-11-01T07:03:23.759Z,9.54
2022-11-01T07:04:25.576Z,9.29
2022-11-01T07:05:29.346Z,8.60
2022-11-01T07:06:31.177Z,8.85
2022-11-01T07:07:33.155Z,9.21
2022-11-01T07:08:35.045Z,8.99
2022-11-01T07:09:36.890Z,8.96
2022-11-01T07:10:38.715Z,8.67
2022-11-01T07:11:40.545Z,8.48
2022-11-01T07:12:42.368Z,8.71
2022-11-01T07:13:44.220Z,8.28
2022-11-01T07:14:46.033Z,8.61
2022-11-01T07:15:47.862Z,8.25
2022-11-01T07:16:49.685Z,7.03
2022-11-01T07:17:51.530Z,7.44
2022-11-01T07:18:53.477Z,7.26
2022-11-01T07:19:55.308Z,6.93
2022-11-01T07:20:57.244Z,7.02
2022-11-01T07:21:59.090Z,7.14
2022-11-01T07:23:01.276Z,7.73
2022-11-01T07:24:03.398Z,6.96
2022-11-01T07:25:05.262Z,6.79
2022-11-01T07:26:07.440Z,6.34
2022-11-01T07:27:09.249Z,7.11
2022-11-01T07:28:11.109Z,8.15
2022-11-01T07:29:12.992Z,7.84
2022-11-01T07:30:14.940Z,8.04
2022-11-01T07:31:16.754Z,6.90
2022-11-01T07:32:18.572Z,6.56
2022-11-01T07:33:20.401Z,7.25
2022-11-01T07:34:22.524Z,6.75
2022-11-01T07:35:24.443Z,4.70
2022-11-01T07:36:26.243Z,6.92
2022-11-01T07:38:29.816Z,6.49
2022-11-01T07:39:31.679Z,6.43
2022-11-01T07:40:33.498Z,6.27
2022-11-01T07:41:35.315Z,6.59
2022-11-01T07:42:37.151Z,7.03
2022-11-01T07:43:39.098Z,6.23
2022-11-01T07:44:40.949Z,6.74
2022-11-01T07:45:42.756Z,7.76
2022-11-01T07:46:44.554Z,6.54
2022-11-01T07:47:46.382Z,7.97
2022-11-01T07:48:48.200Z,7.24
2022-11-01T07:49:50.098Z,7.22
2022-11-01T07:50:52.027Z,7.40
2022-11-01T07:51:53.918Z,7.10
2022-11-01T07:52:55.778Z,7.04
2022-11-01T07:53:57.662Z,6.92
2022-11-01T07:54:59.667Z,7.03
2022-11-01T07:56:01.519Z,7.24
2022-11-01T07:57:03.327Z,7.48
2022-11-01T07:58:05.401Z,7.75
2022-11-01T07:59:07.469Z,7.75
2022-11-01T08:00:10.354Z,6.83
2022-11-01T08:01:12.335Z,6.81
2022-11-01T08:02:14.403Z,5.15
2022-11-01T08:03:16.379Z,6.07
2022-11-01T08:04:18.223Z,6.93
2022-11-01T08:05:20.208Z,6.91
2022-11-01T08:07:23.762Z,6.33
2022-11-01T08:08:25.594Z,6.09
2022-11-01T08:09:27.429Z,6.31
2022-11-01T08:10:29.409Z,5.73
2022-11-01T08:11:31.227Z,6.51
2022-11-01T08:12:33.065Z,6.88
2022-11-01T08:13:34.907Z,7.54
2022-11-01T08:14:36.841Z,6.43
2022-11-01T08:15:38.717Z,6.61
2022-11-01T08:16:40.631Z,6.45
2022-11-01T08:17:42.461Z,6.13
2022-11-01T08:18:44.292Z,4.81
2022-11-01T08:19:46.117Z,5.87
2022-11-01T08:20:48.169Z,6.41
2022-11-01T08:21:50.009Z,6.16
2022-11-01T08:22:51.837Z,5.18
2022-11-01T08:23:53.669Z,5.63
2022-11-01T08:24:55.552Z,5.31
2022-11-01T08:25:57.429Z,5.99
2022-11-01T08:26:59.258Z,6.30
2022-11-01T08:28:01.092Z,5.95
2022-11-01T08:29:02.942Z,5.89
2022-11-01T08:30:04.873Z,5.56
2022-11-01T08:31:06.755Z,4.66
2022-11-01T08:32:08.581Z,5.41
2022-11-01T08:33:10.441Z,5.29
2022-11-01T08:34:15.962Z,5.50
2022-11-01T08:35:15.919Z,4.86
2022-11-01T08:36:17.872Z,5.21
2022-11-01T08:37:19.697Z,5.01
2022-11-01T08:38:21.535Z,4.67
2022-11-01T08:39:23.352Z,5.14
2022-11-01T08:40:25.185Z,4.19
2022-11-01T08:41:27.068Z,4.71
2022-11-01T08:42:28.902Z,4.52
2022-11-01T08:43:30.751Z,4.74
2022-11-01T08:44:32.651Z,5.37
2022-11-01T08:45:34.484Z,2.71
2022-11-01T08:46:36.365Z,3.93
2022-11-01T08:47:38.190Z,3.81
2022-11-01T08:48:40.020Z,4.69
2022-11-01T08:49:41.846Z,4.37
2022-11-01T08:50:43.682Z,3.68
2022-11-01T08:51:45.608Z,3.97
2022-11-01T08:52:47.439Z,4.07
2022-11-01T08:53:49.263Z,3.95
2022-11-01T08:54:51.102Z,4.41
2022-11-01T08:55:52.988Z,4.29
2022-11-01T08:56:54.859Z,4.06
2022-11-01T08:57:56.687Z,4.07
2022-11-01T08:58:58.526Z,4.17
2022-11-01T09:00:00.369Z,4.50
2022-11-01T09:01:02.217Z,3.21
2022-11-01T09:02:04.247Z,1.93
2022-11-01T09:03:06.268Z,4.12
2022-11-01T09:04:08.054Z,3.53
2022-11-01T09:05:09.902Z,2.37
2022-11-01T09:06:12.848Z,3.10
2022-11-01T09:07:14.788Z,3.17
2022-11-01T09:08:16.612Z,3.48
2022-11-01T09:09:18.471Z,4.12
2022-11-01T09:10:20.301Z,4.11
2022-11-01T09:11:22.122Z,3.22
2022-11-01T09:12:24.924Z,4.05
2022-11-01T09:13:26.936Z,4.29
2022-11-01T09:15:49.958Z,3.93
2022-11-01T09:16:52.326Z,4.23
2022-11-01T09:17:54.393Z,3.87
2022-11-01T09:18:56.239Z,3.70
2022-11-01T09:19:58.092Z,3.58
2022-11-01T09:20:59.918Z,3.90
2022-11-01T09:22:01.753Z,3.47
2022-11-01T09:23:04.151Z,3.43
2022-11-01T09:24:06.303Z,2.45
2022-11-01T09:25:08.143Z,4.01
2022-11-01T09:26:10.168Z,3.70
2022-11-01T09:27:11.998Z,3.86
2022-11-01T09:28:13.873Z,3.13
2022-11-01T09:29:15.698Z,3.84
2022-11-01T09:30:17.629Z,3.33
2022-11-01T09:31:21.533Z,2.83
2022-11-01T09:32:23.134Z,3.82
2022-11-01T09:33:25.016Z,3.69
2022-11-01T09:34:26.860Z,3.46
2022-11-01T09:35:28.693Z,3.97
2022-11-01T09:36:30.636Z,3.67
2022-11-01T09:37:32.484Z,3.11
2022-11-01T09:38:34.430Z,3.27
2022-11-01T09:39:36.279Z,3.74
2022-11-01T09:40:38.158Z,3.47
2022-11-01T09:41:40.002Z,3.44
2022-11-01T09:42:41.835Z,3.44
2022-11-01T09:43:43.715Z,3.32
2022-11-01T09:44:45.546Z,2.71
2022-11-01T09:45:47.378Z,3.21
2022-11-01T09:46:49.301Z,3.05
2022-11-01T09:47:51.156Z,2.33
2022-11-01T09:48:52.989Z,2.15
2022-11-01T09:49:54.840Z,2.07
2022-11-01T09:50:56.683Z,1.61
2022-11-01T09:51:58.500Z,2.19
2022-11-01T09:53:00.351Z,2.41
2022-11-01T09:54:02.265Z,2.52
2022-11-01T09:55:04.094Z,3.01
2022-11-01T09:56:06.018Z,2.19
2022-11-01T09:57:07.871Z,2.24
2022-11-01T09:58:09.708Z,2.12
2022-11-01T09:59:11.601Z,2.25
2022-11-01T10:00:14.406Z,2.12
2022-11-01T10:01:16.406Z,2.24
2022-11-01T10:02:18.352Z,2.45
2022-11-01T10:03:20.266Z,2.10
2022-11-01T10:04:22.207Z,2.11
2022-11-01T10:05:24.038Z,2.26
2022-11-01T10:06:25.863Z,2.16
2022-11-01T10:07:27.697Z,2.22
2022-11-01T10:08:29.520Z,2.15
2022-11-01T10:09:31.431Z,2.04
2022-11-01T10:10:34.225Z,2.36
2022-11-01T10:11:36.929Z,2.14
2022-11-01T10:12:38.767Z,1.89
2022-11-01T10:13:40.587Z,2.05
2022-11-01T10:14:42.424Z,1.98
2022-11-01T10:15:44.218Z,2.17
2022-11-01T10:16:46.075Z,1.91
2022-11-01T10:17:51.872Z,1.73
2022-11-01T10:18:51.529Z,1.85
2022-11-01T10:19:53.441Z,1.58
2022-11-01T10:20:55.369Z,1.79
2022-11-01T10:21:57.395Z,1.93
2022-11-01T10:22:59.236Z,1.61
2022-11-01T10:24:01.071Z,1.98
2022-11-01T10:25:02.955Z,1.61
2022-11-01T10:26:04.854Z,1.37
2022-11-01T10:27:06.721Z,1.95
2022-11-01T10:28:08.530Z,1.66
2022-11-01T10:29:10.317Z,1.79
2022-11-01T10:30:13.409Z,1.86
2022-11-01T10:31:15.261Z,1.81
2022-11-01T10:32:17.094Z,2.19
2022-11-01T10:33:18.919Z,2.27
2022-11-01T10:34:20.720Z,2.29
2022-11-01T10:35:22.593Z,1.99
2022-11-01T10:36:24.576Z,2.11
2022-11-01T10:37:26.437Z,2.08
2022-11-01T10:38:49.654Z,1.61
2022-11-01T10:40:35.646Z,1.61
2022-11-01T10:41:37.495Z,1.82
2022-11-01T10:42:39.384Z,1.99
2022-11-01T10:43:41.212Z,1.80
2022-11-01T10:44:43.064Z,1.81
2022-11-01T10:45:47.571Z,1.99
2022-11-01T10:46:48.574Z,1.56
2022-11-01T10:47:50.419Z,1.54
2022-11-01T10:48:52.360Z,1.94
2022-11-01T10:50:09.562Z,1.31
2022-11-01T10:50:57.962Z,1.62
2022-11-01T10:51:59.791Z,1.81
2022-11-01T10:53:01.692Z,1.61
2022-11-01T10:54:03.548Z,1.54
2022-11-01T10:55:05.376Z,1.47
2022-11-01T10:56:07.419Z,1.60
2022-11-01T10:57:09.240Z,1.73
2022-11-01T10:58:11.073Z,1.45
2022-11-01T10:59:12.881Z,1.86
2022-11-01T11:00:14.911Z,1.66
2022-11-01T11:01:16.874Z,2.11
2022-11-01T11:02:18.975Z,2.25
2022-11-01T11:03:20.917Z,1.53
2022-11-01T11:04:22.762Z,1.68
2022-11-01T11:05:24.598Z,1.72
2022-11-01T11:06:26.459Z,2.43
2022-11-01T11:07:28.275Z,2.19
2022-11-01T11:08:30.113Z,1.57
2022-11-01T11:09:32.061Z,1.59
2022-11-01T11:10:33.854Z,1.75
2022-11-01T11:11:35.753Z,1.56
2022-11-01T11:12:37.612Z,1.63
2022-11-01T11:13:40.489Z,1.69
2022-11-01T11:14:42.323Z,1.55
2022-11-01T11:15:44.160Z,1.65
2022-11-01T11:16:46.041Z,1.67
2022-11-01T11:17:47.878Z,1.78
2022-11-01T11:18:49.693Z,1.49
2022-11-01T11:19:51.546Z,1.86
2022-11-01T11:20:54.485Z,1.64
2022-11-01T11:21:56.355Z,1.96
2022-11-01T11:22:58.200Z,1.91
2022-11-01T11:24:00.026Z,1.47
2022-11-01T11:25:01.861Z,2.22
2022-11-01T11:26:03.777Z,2.10
2022-11-01T11:27:05.672Z,1.95
2022-11-01T11:28:08.532Z,1.74
2022-11-01T11:29:10.387Z,1.56
2022-11-01T11:30:12.284Z,1.84
2022-11-01T11:31:14.096Z,1.87
2022-11-01T11:32:15.969Z,1.43
2022-11-01T11:33:17.862Z,1.72
2022-11-01T11:34:19.698Z,1.62
2022-11-01T11:35:21.533Z,1.87
2022-11-01T11:36:23.429Z,1.62
2022-11-01T11:37:25.287Z,2.10
2022-11-01T11:38:27.111Z,1.59
2022-11-01T11:39:28.968Z,1.92
2022-11-01T11:40:30.887Z,1.39
2022-11-01T11:41:32.704Z,1.66
2022-11-01T11:42:35.520Z,1.48
2022-11-01T11:43:37.356Z,1.42
2022-11-01T11:44:39.204Z,1.25
2022-11-01T11:45:41.041Z,1.51
2022-11-01T11:46:42.951Z,1.39
2022-11-01T11:47:44.817Z,1.66
2022-11-01T11:48:46.807Z,1.45
2022-11-01T11:49:48.632Z,1.52
2022-11-01T11:50:50.485Z,2.84
2022-11-01T11:51:52.278Z,3.27
2022-11-01T11:52:57.387Z,2.11
2022-11-01T11:53:59.221Z,2.00
2022-11-01T11:55:01.047Z,1.74
2022-11-01T11:56:02.885Z,1.84
2022-11-01T11:57:04.886Z,1.45
2022-11-01T11:58:06.770Z,1.83
2022-11-01T11:59:08.930Z,1.98
2022-11-01T12:00:11.124Z,2.39
2022-11-01T12:01:12.974Z,3.23
2022-11-01T12:02:15.830Z,2.75
2022-11-01T12:03:17.956Z,2.31
2022-11-01T12:04:19.777Z,1.95
2022-11-01T12:05:21.607Z,2.04
2022-11-01T12:06:23.527Z,1.67
2022-11-01T12:07:25.345Z,1.79
2022-11-01T12:08:27.218Z,2.09
2022-11-01T12:09:29.030Z,2.18
2022-11-01T12:10:30.850Z,1.94
2022-11-01T12:11:32.652Z,2.13
2022-11-01T12:12:35.653Z,1.80
2022-11-01T12:13:37.564Z,1.69
2022-11-01T12:14:39.415Z,1.51
2022-11-01T12:15:41.636Z,1.50
2022-11-01T12:16:43.624Z,1.45
2022-11-01T12:17:45.469Z,1.91
2022-11-01T12:18:47.356Z,1.98
2022-11-01T12:19:49.205Z,2.13
2022-11-01T12:20:51.058Z,2.19
2022-11-01T12:21:52.959Z,1.94
2022-11-01T12:22:54.819Z,1.91
2022-11-01T12:23:56.701Z,1.47
2022-11-01T12:24:58.530Z,1.57
2022-11-01T12:26:00.354Z,1.65
2022-11-01T12:27:02.168Z,1.62
2022-11-01T12:28:04.310Z,1.60
2022-11-01T12:29:06.570Z,1.95
2022-11-01T12:30:08.799Z,1.74
2022-11-01T12:31:10.617Z,1.75
2022-11-01T12:32:12.442Z,1.81
2022-11-01T12:33:17.244Z,1.63
2022-11-01T12:34:17.967Z,1.32
2022-11-01T12:35:19.817Z,1.51
2022-11-01T12:36:21.660Z,1.48
2022-11-01T12:37:23.506Z,1.32
2022-11-01T12:38:25.314Z,1.45
2022-11-01T12:39:27.216Z,1.76
2022-11-01T12:40:29.044Z,1.74
2022-11-01T12:41:30.847Z,1.74
2022-11-01T12:42:32.683Z,1.88
2022-11-01T12:43:34.501Z,1.63
2022-11-01T12:44:36.804Z,1.98
2022-11-01T12:45:38.639Z,1.53
2022-11-01T12:46:40.668Z,1.39
2022-11-01T12:47:42.504Z,1.49
2022-11-01T12:48:44.717Z,1.55
2022-11-01T12:49:46.621Z,1.32
2022-11-01T12:50:48.978Z,1.74
2022-11-01T12:51:50.820Z,1.39
2022-11-01T12:52:52.637Z,1.43
2022-11-01T12:53:54.431Z,1.78
2022-11-01T12:54:56.318Z,1.37
2022-11-01T12:55:58.150Z,1.71
2022-11-01T12:56:59.970Z,1.76
2022-11-01T12:58:01.800Z,1.51
2022-11-01T12:59:03.603Z,1.77
2022-11-01T13:00:05.593Z,2.05
2022-11-01T13:01:07.457Z,1.29
2022-11-01T13:02:09.382Z,1.42
2022-11-01T13:03:11.439Z,1.54
2022-11-01T13:04:13.277Z,1.36
2022-11-01T13:05:15.144Z,1.34
2022-11-01T13:06:17.289Z,1.70
2022-11-01T13:08:40.341Z,1.72
2022-11-01T13:09:42.174Z,2.17
2022-11-01T13:10:44.246Z,3.29
2022-11-01T13:11:46.139Z,2.68
2022-11-01T13:12:47.943Z,2.36
2022-11-01T13:13:49.755Z,2.09
2022-11-01T13:14:51.571Z,1.76
2022-11-01T13:15:53.518Z,1.77
2022-11-01T13:16:55.362Z,1.65
2022-11-01T13:17:57.214Z,1.56
2022-11-01T13:18:59.043Z,1.62
2022-11-01T13:20:00.827Z,1.61
2022-11-01T13:21:02.702Z,1.39
2022-11-01T13:22:04.530Z,1.35
2022-11-01T13:23:06.372Z,1.49
2022-11-01T13:24:08.254Z,1.29
2022-11-01T13:25:10.088Z,1.59
2022-11-01T13:26:12.735Z,1.09
2022-11-01T13:27:14.557Z,1.29
2022-11-01T13:28:16.377Z,1.20
2022-11-01T13:29:18.208Z,1.33
2022-11-01T13:30:20.150Z,1.21
2022-11-01T13:31:22.260Z,1.23
2022-11-01T13:32:24.090Z,1.45
2022-11-01T13:33:25.939Z,1.35
2022-11-01T13:34:27.854Z,1.17
2022-11-01T13:35:29.891Z,1.47
2022-11-01T13:36:31.735Z,1.76
2022-11-01T13:37:33.558Z,1.35
2022-11-01T13:38:35.356Z,1.70
2022-11-01T13:39:37.170Z,1.30
2022-11-01T13:40:38.964Z,1.61
2022-11-01T13:41:40.837Z,1.33
2022-11-01T13:42:42.661Z,1.39
2022-11-01T13:43:44.447Z,1.69
2022-11-01T13:44:46.386Z,1.41
2022-11-01T13:45:48.286Z,1.67
2022-11-01T13:46:50.286Z,2.75
2022-11-01T13:47:52.992Z,2.94